Time;durP1;ratioP1;P1;durP2;ratioP2;P2;SDS_P1;SDS_P2;PMS_P1;PMS_P2;Temp;Humidity;BMP_temperature;BMP_pressure;BME280_temperature;BME280_humidity;BME280_pressure;Samples;Min_cycle;Max_cycle;Signal;HPM_P1;HPM_P2
2023/08/27 00:02:23;;;;;;;9.88;5.90;;;;;;;30.11;43.90;99512.81;4897944;29;20114;-70
2023/08/27 00:04:51;;;;;;;9.27;5.72;;;;;;;30.09;44.25;99510.31;4897882;29;20108;-70
2023/08/27 00:07:19;;;;;;;10.18;5.43;;;;;;;30.07;44.39;99514.38;4898157;29;20060;-69
2023/08/27 00:09:47;;;;;;;10.10;5.53;;;;;;;30.07;44.24;99525.38;4897903;29;20135;-70
2023/08/27 00:12:15;;;;;;;9.77;5.57;;;;;;;30.05;44.17;99522.81;4898389;29;20049;-70
2023/08/27 00:14:43;;;;;;;9.63;5.55;;;;;;;30.03;44.60;99524.97;4898593;29;20108;-70
2023/08/27 00:17:13;;;;;;;9.32;5.85;;;;;;;30.02;44.43;99533.47;4897940;29;20080;-69
2023/08/27 00:19:41;;;;;;;9.27;5.75;;;;;;;30.00;44.33;99525.44;4897819;29;20059;-69
2023/08/27 00:22:09;;;;;;;11.13;5.95;;;;;;;30.00;44.32;99530.94;4897683;29;20053;-70
2023/08/27 00:24:38;;;;;;;7.85;5.45;;;;;;;29.99;44.31;99525.69;4897636;29;20052;-70
2023/08/27 00:27:06;;;;;;;10.35;5.72;;;;;;;29.99;44.49;99518.25;4897524;29;20052;-70
2023/08/27 00:29:34;;;;;;;8.70;5.47;;;;;;;29.98;44.40;99513.84;4897734;29;20451;-69
2023/08/27 00:32:03;;;;;;;8.50;5.30;;;;;;;29.98;44.39;99516.59;4897666;29;20049;-69
2023/08/27 00:34:52;;;;;;;11.32;5.60;;;;;;;29.95;44.62;99510.75;4897524;29;20487;-70
2023/08/27 00:37:23;;;;;;;12.02;6.13;;;;;;;29.95;44.64;99517.06;4899373;29;20057;-69
2023/08/27 00:39:51;;;;;;;8.65;5.22;;;;;;;29.93;44.71;99510.97;4897526;29;20057;-69
2023/08/27 00:42:20;;;;;;;9.05;5.15;;;;;;;29.92;44.80;99514.81;4897324;29;20057;-69
2023/08/27 00:44:49;;;;;;;8.45;5.90;;;;;;;29.90;44.70;99514.19;4897093;29;20474;-69
2023/08/27 00:47:17;;;;;;;8.88;5.53;;;;;;;29.90;44.77;99515.00;4897640;29;20052;-69
2023/08/27 00:49:46;;;;;;;10.27;5.60;;;;;;;29.89;44.87;99509.75;4897087;29;20052;-70
2023/08/27 00:52:17;;;;;;;10.43;5.57;;;;;;;29.90;44.79;99508.69;4897028;29;20049;-69
2023/08/27 00:54:46;;;;;;;8.07;5.57;;;;;;;29.90;45.15;99508.69;4898159;29;20049;-70
2023/08/27 00:57:15;;;;;;;7.18;5.28;;;;;;;29.89;44.97;99501.50;4900029;29;20136;-69
2023/08/27 00:59:44;;;;;;;7.35;5.60;;;;;;;29.90;45.07;99508.69;4897047;29;20056;-69
2023/08/27 01:02:12;;;;;;;8.13;5.85;;;;;;;29.88;44.75;99494.34;4896941;29;20057;-69
2023/08/27 01:04:40;;;;;;;11.13;5.63;;;;;;;29.89;44.94;99501.50;4896687;29;20080;-69
2023/08/27 01:07:16;;;;;;;10.02;5.13;;;;;;;29.89;45.19;99501.50;4897062;29;20048;-69
2023/08/27 01:09:53;;;;;;;8.13;5.05;;;;;;;29.87;44.89;99498.16;4896939;29;20053;-69
2023/08/27 01:12:32;;;;;;;8.23;5.25;;;;;;;29.88;45.04;99505.34;4896734;29;20490;-70
2023/08/27 01:15:05;;;;;;;8.20;5.20;;;;;;;29.86;45.22;99497.34;4899711;29;20049;-69
2023/08/27 01:17:36;;;;;;;10.07;5.55;;;;;;;29.85;45.24;99500.31;4897020;29;20528;-69
2023/08/27 01:20:06;;;;;;;8.10;5.90;;;;;;;29.86;45.43;99502.00;4896712;29;20136;-69
2023/08/27 01:22:36;;;;;;;10.35;5.30;;;;;;;29.85;45.04;99516.81;4896669;29;20073;-69
2023/08/27 01:25:06;;;;;;;8.40;5.47;;;;;;;29.85;45.17;99539.63;4896792;29;20056;-69
2023/08/27 01:27:40;;;;;;;8.18;5.35;;;;;;;29.85;45.31;99522.31;4896625;29;20451;-69
2023/08/27 01:30:17;;;;;;;7.78;5.38;;;;;;;29.84;45.17;99531.63;4896833;29;20052;-69
2023/08/27 01:32:50;;;;;;;7.85;5.50;;;;;;;29.83;45.30;99514.31;4896508;29;20052;-69
2023/08/27 01:35:18;;;;;;;7.75;5.20;;;;;;;29.82;45.33;99523.63;4896541;29;20055;-70
2023/08/27 01:37:48;;;;;;;9.20;5.47;;;;;;;29.80;45.41;99509.25;4896543;29;20053;-70
2023/08/27 01:40:19;;;;;;;7.70;5.57;;;;;;;29.79;45.36;99509.50;4896824;29;20052;-69
2023/08/27 01:42:48;;;;;;;8.98;5.30;;;;;;;29.79;45.20;99509.50;4896985;29;20466;-69
2023/08/27 01:45:17;;;;;;;9.25;5.90;;;;;;;29.77;45.22;99508.91;4900606;29;20080;-69
2023/08/27 01:47:45;;;;;;;7.85;5.47;;;;;;;29.74;45.52;99510.22;4900446;29;20048;-70
2023/08/27 01:50:13;;;;;;;9.68;5.97;;;;;;;29.72;45.64;99511.50;4900459;29;20387;-69
2023/08/27 01:52:42;;;;;;;8.90;5.72;;;;;;;29.70;45.57;99509.00;4900238;29;20044;-69
2023/08/27 01:55:11;;;;;;;8.63;6.05;;;;;;;29.70;45.55;99502.66;4900496;29;20049;-69
2023/08/27 01:57:39;;;;;;;10.55;5.97;;;;;;;29.70;45.83;99508.16;4900425;29;20052;-69
2023/08/27 02:00:10;;;;;;;7.70;5.80;;;;;;;29.69;45.71;99509.22;4900324;29;20422;-70
2023/08/27 02:02:38;;;;;;;8.73;5.28;;;;;;;29.68;45.78;99507.56;4901169;29;20056;-70
2023/08/27 02:05:07;;;;;;;7.63;5.60;;;;;;;29.68;45.76;99521.31;4899820;29;20056;-69
2023/08/27 02:07:38;;;;;;;8.55;5.65;;;;;;;29.68;45.75;99522.13;4899904;29;20108;-70
2023/08/27 02:10:07;;;;;;;8.73;5.30;;;;;;;29.67;45.52;99512.22;4900208;29;20088;-70
2023/08/27 02:12:37;;;;;;;9.70;5.65;;;;;;;29.66;46.00;99517.94;4900179;29;20054;-69
2023/08/27 02:15:07;;;;;;;9.27;5.03;;;;;;;29.64;45.93;99518.19;4899958;29;20055;-70
2023/08/27 02:17:37;;;;;;;7.85;5.10;;;;;;;29.64;45.83;99526.44;4899887;29;20061;-70
2023/08/27 02:20:09;;;;;;;8.10;5.60;;;;;;;29.63;46.02;99536.59;4899902;29;20517;-70
2023/08/27 02:22:38;;;;;;;7.63;5.70;;;;;;;29.63;45.95;99533.84;4899745;29;20052;-70
2023/08/27 02:25:07;;;;;;;8.82;5.57;;;;;;;29.62;45.83;99523.91;4899963;29;20080;-69
2023/08/27 02:27:37;;;;;;;7.40;5.20;;;;;;;29.63;45.76;99530.25;4901347;29;20044;-69
2023/08/27 02:30:06;;;;;;;8.93;5.53;;;;;;;29.61;45.88;99522.22;4899820;29;20052;-69
2023/08/27 02:32:35;;;;;;;10.05;5.50;;;;;;;29.60;45.94;99526.03;4899502;29;20049;-69
2023/08/27 02:35:03;;;;;;;7.55;5.38;;;;;;;29.60;46.13;99525.22;4899746;29;20052;-69
2023/08/27 02:37:31;;;;;;;9.02;5.65;;;;;;;29.59;46.13;99526.28;4899730;29;20056;-69
2023/08/27 02:40:00;;;;;;;7.63;5.20;;;;;;;29.57;46.33;99523.78;4899719;29;20059;-69
2023/08/27 02:42:28;;;;;;;10.30;5.20;;;;;;;29.57;46.03;99526.53;4899595;29;20049;-69
2023/08/27 02:44:57;;;;;;;9.23;5.90;;;;;;;29.55;46.52;99512.19;4899488;29;20510;-68
2023/08/27 02:47:25;;;;;;;11.07;5.50;;;;;;;29.53;46.62;99511.59;4900301;29;20084;-69
2023/08/27 02:49:54;;;;;;;8.43;5.70;;;;;;;29.53;46.78;99513.47;4899673;29;20048;-70
2023/08/27 02:52:22;;;;;;;8.80;5.65;;;;;;;29.52;46.85;99515.38;4901125;29;20116;-70
2023/08/27 02:54:52;;;;;;;8.20;5.95;;;;;;;29.51;47.05;99526.59;4900745;29;20563;-70
2023/08/27 02:57:20;;;;;;;7.97;5.80;;;;;;;29.50;47.35;99523.03;4899548;29;20052;-69
2023/08/27 02:59:48;;;;;;;11.35;5.90;;;;;;;29.48;47.53;99521.56;4899379;29;20707;-69
2023/08/27 03:02:21;;;;;;;8.30;5.80;;;;;;;29.49;47.48;99529.59;4899380;29;20049;-70
2023/08/27 03:04:50;;;;;;;7.70;5.63;;;;;;;29.47;47.98;99520.72;4899194;29;20363;-70
2023/08/27 03:07:18;;;;;;;7.47;5.60;;;;;;;29.45;47.96;99511.88;4899285;29;20073;-70
2023/08/27 03:09:46;;;;;;;7.25;5.47;;;;;;;29.42;48.04;99512.31;4899218;29;20048;-70
2023/08/27 03:12:17;;;;;;;8.95;5.15;;;;;;;29.42;48.16;99516.97;4898992;29;20513;-70
2023/08/27 03:14:45;;;;;;;8.75;5.57;;;;;;;29.38;48.24;99502.88;4898978;29;20108;-70
2023/08/27 03:17:14;;;;;;;8.77;5.43;;;;;;;29.38;48.54;99507.53;4899099;29;20501;-70
2023/08/27 03:19:43;;;;;;;7.65;5.28;;;;;;;29.37;48.77;99514.94;4898885;29;20080;-70
2023/08/27 03:22:11;;;;;;;7.60;5.25;;;;;;;29.35;49.02;99522.59;4898818;29;20052;-70
2023/08/27 03:24:40;;;;;;;7.10;5.22;;;;;;;29.35;49.16;99525.34;4898593;29;20495;-70
2023/08/27 03:27:08;;;;;;;7.05;5.10;;;;;;;29.32;49.35;99536.75;4899899;29;20451;-70
2023/08/27 03:29:36;;;;;;;8.50;5.22;;;;;;;29.29;49.34;99529.84;4882517;29;20049;-70
2023/08/27 03:32:05;;;;;;;6.63;4.88;;;;;;;29.29;49.34;99532.56;4898765;29;20410;-70
2023/08/27 03:34:33;;;;;;;8.05;4.60;;;;;;;29.28;49.45;99528.16;4898656;29;20055;-70
2023/08/27 03:37:03;;;;;;;7.13;4.47;;;;;;;29.28;49.25;99532.81;4898514;29;20084;-70
2023/08/27 03:39:31;;;;;;;6.57;4.50;;;;;;;29.27;49.39;99547.63;4898430;29;20067;-69
2023/08/27 03:41:59;;;;;;;6.85;4.57;;;;;;;29.25;49.83;99549.75;4898704;29;20072;-70
2023/08/27 03:44:28;;;;;;;7.57;4.20;;;;;;;29.24;49.69;99550.81;4898379;29;20116;-69
2023/08/27 03:46:56;;;;;;;5.43;4.07;;;;;;;29.23;49.35;99549.13;4898396;29;20052;-69
2023/08/27 03:49:24;;;;;;;6.50;3.95;;;;;;;29.23;49.58;99551.88;4898380;29;20057;-70
2023/08/27 03:51:52;;;;;;;6.15;4.38;;;;;;;29.22;49.53;99550.19;4898166;29;20176;-70
2023/08/27 03:54:22;;;;;;;6.25;4.20;;;;;;;29.20;49.69;99546.84;4898390;29;20415;-69
2023/08/27 03:56:50;;;;;;;5.15;4.00;;;;;;;29.20;49.45;99555.09;4898283;29;20052;-70
2023/08/27 03:59:18;;;;;;;5.53;4.22;;;;;;;29.19;49.38;99556.16;4898281;29;20136;-69
2023/08/27 04:01:47;;;;;;;6.00;4.15;;;;;;;29.17;49.71;99548.16;4898186;29;20053;-69
2023/08/27 04:04:15;;;;;;;5.80;4.07;;;;;;;29.16;49.71;99557.47;4898308;29;20117;-70
2023/08/27 04:06:43;;;;;;;4.75;3.58;;;;;;;29.16;49.99;99559.38;4897650;29;20194;-70
2023/08/27 04:09:11;;;;;;;6.88;4.40;;;;;;;29.15;49.67;99568.69;4897835;29;20602;-70
2023/08/27 04:11:41;;;;;;;5.68;3.65;;;;;;;29.12;49.61;99566.38;4898011;29;20049;-70
2023/08/27 04:14:09;;;;;;;6.60;3.78;;;;;;;29.13;49.89;99573.53;4897877;29;20522;-70
2023/08/27 04:16:37;;;;;;;6.18;3.40;;;;;;;29.12;49.59;99575.47;4897786;29;20461;-70
2023/08/27 04:19:05;;;;;;;5.55;3.85;;;;;;;29.11;49.67;99583.94;4897672;29;20073;-70
2023/08/27 04:21:33;;;;;;;6.63;3.75;;;;;;;29.11;49.80;99592.16;4897930;29;20049;-70
2023/08/27 04:24:02;;;;;;;6.68;3.33;;;;;;;29.08;49.68;99577.84;4897819;29;20060;-70
2023/08/27 04:26:30;;;;;;;6.13;3.63;;;;;;;29.10;49.63;99587.75;4897727;29;20108;-69
2023/08/27 04:28:59;;;;;;;5.10;3.28;;;;;;;29.08;49.76;99577.84;4897649;29;20045;-69
2023/08/27 04:31:27;;;;;;;4.60;3.28;;;;;;;29.09;50.06;99584.16;4897383;29;20053;-69
2023/08/27 04:33:55;;;;;;;5.10;3.40;;;;;;;29.09;49.69;99581.41;4897429;29;20399;-70
2023/08/27 04:36:24;;;;;;;4.75;3.30;;;;;;;29.08;50.06;99571.50;4897810;29;20049;-70
2023/08/27 04:38:52;;;;;;;5.28;3.30;;;;;;;29.08;49.74;99583.31;4898184;29;20076;-69
2023/08/27 04:41:20;;;;;;;5.53;3.10;;;;;;;29.04;50.02;99571.09;4897493;29;20052;-70
2023/08/27 04:43:48;;;;;;;4.47;3.35;;;;;;;29.06;50.03;99582.72;4897215;29;20052;-70
2023/08/27 04:46:17;;;;;;;4.97;3.25;;;;;;;29.06;49.58;99579.97;4897098;29;20052;-70
2023/08/27 04:48:46;;;;;;;5.10;3.15;;;;;;;29.05;49.76;99572.81;4897391;29;20443;-70
2023/08/27 04:51:14;;;;;;;5.07;2.97;;;;;;;29.05;49.57;99572.81;4880796;29;20056;-70
2023/08/27 04:53:42;;;;;;;4.70;2.88;;;;;;;29.04;50.06;99568.34;4897273;29;20052;-70
2023/08/27 04:56:10;;;;;;;4.88;2.85;;;;;;;29.04;49.79;99570.25;4897231;29;20080;-70
2023/08/27 04:58:39;;;;;;;5.10;2.83;;;;;;;29.02;49.67;99573.25;4896955;29;20045;-70
2023/08/27 05:01:07;;;;;;;5.20;3.20;;;;;;;29.03;50.07;99572.19;4896951;29;20045;-70
2023/08/27 05:03:36;;;;;;;5.13;2.90;;;;;;;29.03;49.78;99574.91;4896926;29;20463;-70
2023/08/27 05:06:04;;;;;;;5.03;2.92;;;;;;;29.03;50.16;99569.44;4896802;29;20079;-70
2023/08/27 05:08:32;;;;;;;4.80;3.15;;;;;;;29.02;50.14;99584.22;4897094;29;20080;-69
2023/08/27 05:11:00;;;;;;;5.05;2.60;;;;;;;29.01;49.79;99588.03;4897361;29;20087;-70
2023/08/27 05:13:29;;;;;;;4.20;2.90;;;;;;;29.01;49.99;99593.53;4896726;29;20396;-70
2023/08/27 05:15:57;;;;;;;5.70;3.10;;;;;;;29.01;49.83;99582.56;4896771;29;20067;-70
2023/08/27 05:18:25;;;;;;;4.53;2.70;;;;;;;29.02;50.30;99594.38;4896400;29;20143;-70
2023/08/27 05:20:54;;;;;;;4.13;2.80;;;;;;;29.02;49.94;99600.69;4896984;29;20049;-69
2023/08/27 05:23:23;;;;;;;4.47;2.80;;;;;;;29.00;50.11;99591.84;4896715;29;20060;-69
2023/08/27 05:25:51;;;;;;;5.82;3.08;;;;;;;29.00;50.22;99591.84;4896634;29;20056;-70
2023/08/27 05:28:19;;;;;;;3.75;2.75;;;;;;;28.99;49.88;99595.69;4896823;29;20049;-70
2023/08/27 05:30:48;;;;;;;4.18;2.70;;;;;;;28.99;50.04;99592.09;4896919;29;20053;-69
2023/08/27 05:33:18;;;;;;;3.90;2.53;;;;;;;28.99;50.05;99595.69;4896773;29;20045;-70
2023/08/27 05:35:46;;;;;;;4.80;2.60;;;;;;;28.99;50.28;99592.09;4896692;29;20053;-70
2023/08/27 05:38:16;;;;;;;4.15;2.80;;;;;;;28.97;50.14;99586.84;4897177;29;20049;-69
2023/08/27 05:40:44;;;;;;;4.40;2.70;;;;;;;28.95;50.34;99566.16;4896443;29;20115;-70
2023/08/27 05:43:12;;;;;;;4.03;3.00;;;;;;;28.96;50.20;99573.34;4897095;29;20049;-70
2023/08/27 05:45:40;;;;;;;4.25;3.00;;;;;;;28.96;50.43;99571.44;4896842;29;20104;-70
2023/08/27 05:48:08;;;;;;;4.93;2.70;;;;;;;28.96;50.74;99571.44;4896484;29;20513;-70
2023/08/27 05:50:36;;;;;;;4.80;3.10;;;;;;;28.97;50.56;99572.28;4896492;29;20053;-71
2023/08/27 05:53:05;;;;;;;5.63;3.13;;;;;;;28.98;50.28;99576.69;4896497;29;20048;-69
2023/08/27 05:55:35;;;;;;;6.05;2.90;;;;;;;28.97;50.66;99577.75;4896803;29;20056;-70
2023/08/27 05:58:04;;;;;;;4.50;2.55;;;;;;;28.95;50.74;99577.13;4896671;29;20094;-69
2023/08/27 06:00:32;;;;;;;4.53;2.72;;;;;;;28.96;50.82;99584.31;4896613;29;20049;-70
2023/08/27 06:03:00;;;;;;;4.28;3.08;;;;;;;28.95;50.56;99585.34;4896452;29;20056;-70
2023/08/27 06:05:28;;;;;;;4.28;2.80;;;;;;;28.95;50.80;99594.47;4896219;29;20075;-70
2023/08/27 06:07:58;;;;;;;5.38;2.95;;;;;;;28.95;50.47;99588.97;4896829;29;20053;-70
2023/08/27 06:10:27;;;;;;;4.60;2.95;;;;;;;28.95;50.83;99583.47;4896819;29;20139;-70
2023/08/27 06:12:56;;;;;;;5.10;2.78;;;;;;;28.94;50.57;99570.78;4896474;29;20059;-70
2023/08/27 06:15:27;;;;;;;4.82;3.22;;;;;;;28.95;50.89;99572.50;4896480;29;20056;-70
2023/08/27 06:17:57;;;;;;;5.50;3.40;;;;;;;28.92;51.03;99581.16;4896452;29;20383;-70
2023/08/27 06:20:26;;;;;;;5.03;3.33;;;;;;;28.94;50.69;99570.78;4896349;29;20070;-70
2023/08/27 06:22:54;;;;;;;7.35;3.33;;;;;;;28.94;51.08;99559.81;4896211;29;20482;-69
2023/08/27 06:25:22;;;;;;;6.05;3.00;;;;;;;28.94;51.32;99559.81;4896034;29;20485;-70
2023/08/27 06:27:51;;;;;;;5.22;3.50;;;;;;;28.95;51.14;99556.03;4896300;29;20412;-70
2023/08/27 06:30:21;;;;;;;4.43;3.30;;;;;;;28.94;51.21;99556.22;4898958;29;20048;-70
2023/08/27 06:32:50;;;;;;;6.18;3.53;;;;;;;28.95;51.13;99563.41;4899325;29;20052;-70
2023/08/27 06:35:18;;;;;;;4.97;3.50;;;;;;;28.95;51.24;99567.00;4899842;29;20388;-70
2023/08/27 06:37:46;;;;;;;5.25;3.30;;;;;;;28.95;51.06;99557.91;4899614;29;20051;-70
2023/08/27 06:40:14;;;;;;;5.05;3.45;;;;;;;28.94;51.66;99565.31;4899687;29;20048;-70
2023/08/27 06:42:43;;;;;;;5.47;3.42;;;;;;;28.95;51.18;99557.91;4900073;29;20477;-70
2023/08/27 06:45:12;;;;;;;5.53;3.33;;;;;;;28.95;51.55;99561.53;4899250;29;20140;-70
2023/08/27 06:47:41;;;;;;;7.38;4.07;;;;;;;28.95;51.72;99556.03;4899346;29;20490;-70
2023/08/27 06:50:10;;;;;;;5.63;3.60;;;;;;;28.94;51.33;99548.84;4899437;29;20056;-70
2023/08/27 06:52:38;;;;;;;5.75;3.63;;;;;;;28.95;51.67;99555.16;4899361;29;20080;-70
2023/08/27 06:55:06;;;;;;;6.28;3.97;;;;;;;28.96;51.78;99559.63;4899267;29;20053;-70
2023/08/27 06:57:34;;;;;;;6.03;3.70;;;;;;;28.96;51.76;99562.38;4899719;29;20049;-70
2023/08/27 07:00:03;;;;;;;5.20;3.97;;;;;;;28.97;51.79;99553.06;4899155;29;20076;-70
2023/08/27 07:02:32;;;;;;;5.57;4.00;;;;;;;28.97;51.54;99551.16;4899439;29;20439;-70
2023/08/27 07:05:01;;;;;;;5.18;4.03;;;;;;;28.96;51.91;99543.97;4898985;29;20045;-69
2023/08/27 07:07:30;;;;;;;7.72;4.18;;;;;;;28.96;52.09;99546.72;4899164;29;20052;-70
2023/08/27 07:09:58;;;;;;;6.60;4.10;;;;;;;28.95;51.72;99545.06;4898997;29;20391;-70
2023/08/27 07:12:26;;;;;;;7.70;4.15;;;;;;;28.97;52.04;99556.63;4899452;29;20052;-69
2023/08/27 07:14:54;;;;;;;5.70;3.97;;;;;;;28.97;52.03;99558.53;4898782;29;20056;-70
2023/08/27 07:17:22;;;;;;;5.60;3.95;;;;;;;28.96;51.84;99563.19;4899067;29;20137;-70
2023/08/27 07:19:50;;;;;;;6.18;4.53;;;;;;;28.98;52.31;99565.72;4899198;29;20060;-70
2023/08/27 07:22:20;;;;;;;5.40;3.97;;;;;;;28.98;51.76;99572.03;4898872;29;20049;-71
2023/08/27 07:24:49;;;;;;;7.03;4.38;;;;;;;29.00;52.27;99563.56;4897690;29;20487;-71
2023/08/27 07:27:17;;;;;;;7.20;4.32;;;;;;;28.98;51.94;99555.56;4903328;29;20048;-68
2023/08/27 07:29:45;;;;;;;6.40;4.55;;;;;;;28.99;52.23;99557.25;4899455;29;20135;-70
2023/08/27 07:32:13;;;;;;;8.98;4.68;;;;;;;29.00;52.28;99558.06;4907444;29;20096;-68
2023/08/27 07:34:41;;;;;;;6.88;4.90;;;;;;;28.99;52.52;99554.50;4907706;29;20498;-75
2023/08/27 07:37:10;;;;;;;6.15;4.40;;;;;;;28.98;52.23;99543.75;4898266;29;20104;-68
2023/08/27 07:39:39;;;;;;;8.27;5.13;;;;;;;28.97;52.88;99540.16;4898444;29;20088;-69
2023/08/27 07:42:08;;;;;;;8.25;5.38;;;;;;;28.99;52.95;99546.25;4898733;29;20048;-70
2023/08/27 07:44:36;;;;;;;8.02;5.10;;;;;;;28.99;52.78;99540.78;4898870;29;20108;-69
2023/08/27 07:47:04;;;;;;;8.48;5.13;;;;;;;28.98;52.66;99539.09;4898261;29;20048;-70
2023/08/27 07:49:33;;;;;;;7.65;5.18;;;;;;;29.00;52.99;99541.59;4898396;29;20059;-70
2023/08/27 07:52:01;;;;;;;7.88;5.28;;;;;;;28.99;53.58;99534.44;4898602;29;20143;-69
2023/08/27 07:54:29;;;;;;;8.40;5.50;;;;;;;28.99;53.46;99534.44;4898194;29;20112;-70
2023/08/27 07:56:58;;;;;;;8.63;5.55;;;;;;;29.00;53.04;99525.97;4898221;29;20048;-70
2023/08/27 07:59:29;;;;;;;8.60;5.40;;;;;;;29.02;53.16;99520.25;4898277;29;20131;-70
2023/08/27 08:01:59;;;;;;;7.03;5.28;;;;;;;29.00;52.91;99506.75;4898042;29;20052;-69
2023/08/27 08:04:27;;;;;;;7.25;5.50;;;;;;;29.02;53.41;99515.59;4897872;29;20430;-69
2023/08/27 08:06:55;;;;;;;6.97;5.25;;;;;;;29.02;53.08;99510.09;4897894;29;20052;-70
2023/08/27 08:09:23;;;;;;;8.48;5.75;;;;;;;29.02;52.93;99501.88;4898220;29;20052;-70
2023/08/27 08:11:51;;;;;;;8.05;6.03;;;;;;;29.05;53.58;99509.66;4897922;29;20056;-70
2023/08/27 08:14:21;;;;;;;7.22;5.75;;;;;;;29.05;53.40;99509.66;4900326;29;20049;-69
2023/08/27 08:16:52;;;;;;;7.80;6.05;;;;;;;29.05;53.35;99517.91;4898203;29;20097;-69
2023/08/27 08:19:21;;;;;;;8.53;6.70;;;;;;;29.06;53.39;99516.81;4897740;29;20108;-69
2023/08/27 08:21:49;;;;;;;9.23;6.93;;;;;;;29.06;53.99;99516.81;4897658;29;20291;-70
2023/08/27 08:24:17;;;;;;;11.15;7.32;;;;;;;29.07;54.20;99514.91;4897876;29;20131;-69
2023/08/27 08:26:45;;;;;;;8.80;7.30;;;;;;;29.06;54.19;99505.84;4897893;29;20102;-69
2023/08/27 08:29:13;;;;;;;8.60;6.57;;;;;;;29.05;54.07;99501.44;4897569;29;20052;-70
2023/08/27 08:31:43;;;;;;;10.90;6.97;;;;;;;29.10;53.92;99502.63;4897578;29;20064;-69
2023/08/27 08:34:11;;;;;;;10.00;7.25;;;;;;;29.09;53.93;99501.78;4897596;29;20092;-69
2023/08/27 08:36:39;;;;;;;9.50;7.30;;;;;;;29.10;54.22;99502.63;4897556;29;20058;-69
2023/08/27 08:39:07;;;;;;;10.65;7.18;;;;;;;29.11;54.17;99499.66;4897664;29;20056;-69
2023/08/27 08:41:42;;;;;;;11.32;7.50;;;;;;;29.11;53.94;99499.66;4897419;29;20124;-69
2023/08/27 08:44:21;;;;;;;12.10;7.32;;;;;;;29.14;54.02;99492.84;4897469;29;20060;-70
2023/08/27 08:46:52;;;;;;;10.07;7.93;;;;;;;29.14;53.82;99499.19;4897314;29;20064;-70
2023/08/27 08:49:23;;;;;;;10.90;8.02;;;;;;;29.16;53.93;99504.47;4897585;29;20053;-69
2023/08/27 08:51:56;;;;;;;9.82;7.55;;;;;;;29.16;53.88;99508.03;4896865;29;20505;-70
2023/08/27 08:54:28;;;;;;;9.27;7.40;;;;;;;29.17;54.10;99512.47;4896813;29;20056;-70
2023/08/27 08:57:01;;;;;;;9.30;7.25;;;;;;;29.18;53.90;99500.41;4897151;29;20104;-69
2023/08/27 08:59:29;;;;;;;;;;;;;;;29.21;53.85;99504.59;4897735;29;20143;-70
2023/08/27 09:02:01;;;;;;;9.98;7.75;;;;;;;29.19;53.60;99498.50;4897174;29;19923;-70
2023/08/27 09:04:30;;;;;;;10.73;7.83;;;;;;;29.21;53.64;99499.09;4896944;29;20470;-69
2023/08/27 09:06:59;;;;;;;11.27;8.32;;;;;;;29.23;53.55;99506.03;4897089;29;20057;-69
2023/08/27 09:09:28;;;;;;;10.43;8.10;;;;;;;29.24;53.28;99501.38;4896778;29;20051;-70
2023/08/27 09:12:00;;;;;;;10.10;7.82;;;;;;;29.25;53.58;99497.59;4897124;29;20052;-70
2023/08/27 09:14:30;;;;;;;10.75;7.78;;;;;;;29.25;53.46;99495.69;4904691;29;20040;-69
2023/08/27 09:17:00;;;;;;;10.25;7.65;;;;;;;29.28;53.63;99497.09;4915808;29;20075;-70
2023/08/27 09:19:28;;;;;;;11.48;8.10;;;;;;;29.29;53.63;99485.88;4916249;29;20056;-69
2023/08/27 09:21:56;;;;;;;9.95;8.10;;;;;;;29.30;53.31;99481.22;4915721;29;20051;-70
2023/08/27 09:24:24;;;;;;;10.23;8.13;;;;;;;29.30;53.41;99481.22;4913779;29;20056;-70
2023/08/27 09:26:52;;;;;;;10.20;8.18;;;;;;;29.32;53.48;99479.09;4896846;29;20053;-69
2023/08/27 09:29:22;;;;;;;12.07;8.38;;;;;;;29.33;53.32;99486.25;4896574;29;20414;-70
2023/08/27 09:31:51;;;;;;;12.10;8.90;;;;;;;29.34;52.98;99471.47;4896698;29;20439;-69
2023/08/27 09:34:21;;;;;;;10.35;9.00;;;;;;;29.35;53.04;99478.63;4896606;29;20071;-69
2023/08/27 09:36:50;;;;;;;10.10;8.40;;;;;;;29.36;52.90;99475.66;4896466;29;20140;-70
2023/08/27 09:39:20;;;;;;;12.38;9.52;;;;;;;29.39;52.77;99470.75;4896690;29;20060;-72
2023/08/27 09:41:48;;;;;;;11.70;8.98;;;;;;;29.38;52.54;99461.69;4896696;29;20391;-69
2023/08/27 09:44:20;;;;;;;11.13;9.25;;;;;;;29.40;52.72;99462.28;4880524;29;20048;-73
2023/08/27 09:46:50;;;;;;;11.88;9.40;;;;;;;29.42;52.57;99460.13;4896754;29;20124;-78
2023/08/27 09:49:27;;;;;;;12.15;9.45;;;;;;;29.44;52.19;99466.25;4897443;29;20104;-71
2023/08/27 09:51:58;;;;;;;11.80;9.70;;;;;;;29.45;52.08;99465.19;4896815;29;20186;-70
2023/08/27 09:54:31;;;;;;;11.77;9.45;;;;;;;29.47;52.29;99465.78;4896955;29;20134;-71
2023/08/27 09:57:00;;;;;;;;;;;;;;;29.49;52.27;99468.31;4897249;29;20056;-71
2023/08/27 09:59:30;;;;;;;13.18;9.55;;;;;;;29.50;52.27;99470.81;4896915;29;19923;-70
2023/08/27 10:02:00;;;;;;;12.23;9.27;;;;;;;29.52;51.95;99484.31;4896550;29;20494;-74
2023/08/27 10:04:29;;;;;;;11.95;9.27;;;;;;;29.54;52.15;99471.22;4898218;29;20061;-71
2023/08/27 10:06:57;;;;;;;11.63;9.38;;;;;;;29.55;52.30;99468.22;4900224;29;20053;-72
2023/08/27 10:09:34;;;;;;;10.85;9.52;;;;;;;29.57;52.04;99474.31;4900145;29;20080;-70
2023/08/27 10:12:02;;;;;;;11.77;9.40;;;;;;;29.59;52.10;99472.16;4900622;29;20049;-79
2023/08/27 10:14:32;;;;;;;11.77;9.57;;;;;;;29.60;52.16;99464.75;4899972;29;20049;-73
2023/08/27 10:17:00;;;;;;;14.55;10.50;;;;;;;29.64;52.14;99466.81;4901316;29;20052;-74
2023/08/27 10:19:30;;;;;;;13.55;9.48;;;;;;;29.67;52.11;99475.66;4901961;29;20139;-72
2023/08/27 10:21:59;;;;;;;14.75;9.70;;;;;;;29.70;52.07;99461.44;4900178;29;20056;-70
2023/08/27 10:24:30;;;;;;;13.07;9.73;;;;;;;29.72;51.97;99456.53;4899773;29;20516;-73
2023/08/27 10:26:59;;;;;;;11.05;9.85;;;;;;;29.75;51.57;99456.09;4899611;29;20108;-73
2023/08/27 10:29:28;;;;;;;12.93;9.70;;;;;;;29.75;51.80;99440.44;4899997;29;20080;-73
2023/08/27 10:31:57;;;;;;;11.63;9.43;;;;;;;29.79;51.58;99444.38;4899845;29;20104;-73
2023/08/27 10:34:28;;;;;;;12.60;9.77;;;;;;;29.79;51.21;99440.78;4899879;29;20100;-73
2023/08/27 10:37:02;;;;;;;13.07;10.20;;;;;;;29.84;51.09;99429.94;4899480;29;20054;-71
2023/08/27 10:39:33;;;;;;;13.57;10.35;;;;;;;29.87;51.33;99444.03;4899528;29;20053;-72
2023/08/27 10:42:02;;;;;;;11.23;9.73;;;;;;;29.90;51.35;99445.44;4899974;29;20059;-75
2023/08/27 10:44:31;;;;;;;12.30;10.05;;;;;;;29.92;51.26;99432.34;4885304;29;20053;-74
2023/08/27 10:47:10;;;;;;;11.63;10.23;;;;;;;29.94;51.05;99432.94;4899521;29;20132;-75
2023/08/27 10:49:39;;;;;;;12.32;10.30;;;;;;;29.97;51.09;99432.44;4899574;29;20116;-75
2023/08/27 10:52:18;;;;;;;13.10;9.90;;;;;;;29.98;51.06;99428.63;4899235;29;20056;-74
2023/08/27 10:54:47;;;;;;;13.57;10.52;;;;;;;30.01;51.12;99421.78;4899296;29;20135;-76
2023/08/27 10:57:18;;;;;;;11.35;10.10;;;;;;;30.04;50.81;99424.91;4899356;29;20494;-75
2023/08/27 10:59:46;;;;;;;12.82;10.10;;;;;;;30.08;50.26;99420.63;4899211;29;20088;-76
2023/08/27 11:02:16;;;;;;;13.63;10.07;;;;;;;30.12;49.50;99402.59;4899252;29;20052;-74
2023/08/27 11:04:49;;;;;;;14.35;10.05;;;;;;;30.16;49.14;99406.53;4899064;29;20522;-73
2023/08/27 11:07:22;;;;;;;11.98;10.02;;;;;;;30.21;49.08;99400.31;4899535;29;20049;-73
2023/08/27 11:09:54;;;;;;;14.20;9.75;;;;;;;30.22;49.03;99401.16;4899108;29;20048;-74
2023/08/27 11:12:25;;;;;;;13.63;9.55;;;;;;;30.27;48.98;99415.00;4898877;29;20135;-72
2023/08/27 11:14:54;;;;;;;11.15;9.95;;;;;;;30.30;48.62;99406.25;4898708;29;20052;-73
2023/08/27 11:17:24;;;;;;;13.30;9.75;;;;;;;30.34;48.32;99412.97;4898291;29;20466;-74
2023/08/27 11:19:53;;;;;;;13.10;9.45;;;;;;;30.38;48.24;99411.41;4899048;29;20075;-73
2023/08/27 11:22:23;;;;;;;12.20;9.60;;;;;;;30.42;47.94;99407.09;4898936;29;20059;-73
2023/08/27 11:24:53;;;;;;;14.35;10.20;;;;;;;30.46;47.48;99419.28;4898696;29;20052;-73
2023/08/27 11:27:22;;;;;;;11.35;9.98;;;;;;;30.51;47.25;99416.66;4898415;29;20053;-72
2023/08/27 11:29:52;;;;;;;15.07;9.57;;;;;;;30.54;46.85;99427.19;4898584;29;20045;-72
2023/08/27 11:32:21;;;;;;;11.60;9.80;;;;;;;30.58;46.80;99413.75;4898726;29;20048;-72
2023/08/27 11:34:51;;;;;;;10.27;9.25;;;;;;;30.63;46.74;99414.72;4898453;29;20490;-71
2023/08/27 11:37:20;;;;;;;11.77;8.93;;;;;;;30.64;46.93;99407.28;4898566;29;20052;-70
2023/08/27 11:39:50;;;;;;;11.55;9.57;;;;;;;30.67;47.17;99409.59;4898777;29;20051;-72
2023/08/27 11:42:18;;;;;;;12.85;9.00;;;;;;;30.69;47.22;99402.78;4898369;29;20063;-73